ETD460 OMAA-YMML
Flight info
| Callsign | ETD460 |
|---|---|
| Flight time | N/A |
| Altitude | 39000 |
| Route | KANI4K KANIP N318 TOLDA P570 EMURU M300 VASTU P895 CIA/N0502F350 P895 BIKOK M641 KAT N640 ELATI DCT 06S095E/N0496F370 09S099E 14S106E DCT PAVNU DCT 20S115E 2200S11750E/N0480F390 DCT COOBI DCT 2600S12330E 29S128E DCT ABTOD A585 AD V255 BENDO Y12 ARBEY ARBE7A |
| Aircraft | A35K/H-V/N |
Departure
| Time | 2026-04-30 22:49 |
|---|---|
| Airport | Zayed International Airport (OMAA) |
Arrival
| Time | N/A |
|---|---|
| Airport | Melbourne Airport (YMML) |
| Time | Latitude | Longitude | Altitude | Speed | Heading |
|---|---|---|---|---|---|
| 2026-04-30 22:23 | 24.44592 | 54.64300 | 74 ft | 0 kts | 68° |
| 2026-04-30 22:33 | 24.44570 | 54.64238 | 86 ft | 5 kts | 70° |
| 2026-04-30 22:33 | 24.44577 | 54.64194 | 86 ft | 2 kts | 142° |
| 2026-04-30 22:34 | 24.44599 | 54.64180 | 86 ft | 0 kts | 157° |
| 2026-04-30 22:37 | 24.44578 | 54.64188 | 91 ft | 5 kts | 160° |
| 2026-04-30 22:38 | 24.44451 | 54.64244 | 86 ft | 14 kts | 154° |
| 2026-04-30 22:38 | 24.44283 | 54.64436 | 86 ft | 20 kts | 127° |
| 2026-04-30 22:39 | 24.44200 | 54.64552 | 87 ft | 19 kts | 128° |
| 2026-04-30 22:39 | 24.43977 | 54.64854 | 86 ft | 11 kts | 153° |
| 2026-04-30 22:40 | 24.43821 | 54.64859 | 87 ft | 9 kts | 127° |
| 2026-04-30 22:41 | 24.43596 | 54.65174 | 84 ft | 23 kts | 127° |
| 2026-04-30 22:41 | 24.43410 | 54.65436 | 85 ft | 22 kts | 128° |
| 2026-04-30 22:42 | 24.43032 | 54.65969 | 86 ft | 22 kts | 128° |
| 2026-04-30 22:43 | 24.42854 | 54.66220 | 85 ft | 20 kts | 128° |
| 2026-04-30 22:43 | 24.42687 | 54.66455 | 87 ft | 19 kts | 127° |
| 2026-04-30 22:44 | 24.42569 | 54.66622 | 86 ft | 12 kts | 128° |
| 2026-04-30 22:45 | 24.42327 | 54.66836 | 84 ft | 9 kts | 220° |
| 2026-04-30 22:45 | 24.42324 | 54.66833 | 85 ft | 0 kts | 219° |
| 2026-04-30 22:47 | 24.42261 | 54.66778 | 85 ft | 14 kts | 218° |
| 2026-04-30 22:47 | 24.42238 | 54.66621 | 84 ft | 12 kts | 309° |
| 2026-04-30 22:48 | 24.42587 | 54.66133 | 89 ft | 96 kts | 307° |
| 2026-04-30 22:49 | 24.44583 | 54.63291 | 809 ft | 176 kts | 308° |
| 2026-04-30 22:49 | 24.46918 | 54.60001 | 1704 ft | 198 kts | 312° |
| 2026-04-30 22:50 | 24.50744 | 54.54643 | 2657 ft | 241 kts | 309° |
| 2026-04-30 22:51 | 24.52832 | 54.51695 | 3560 ft | 247 kts | 309° |
| 2026-04-30 22:51 | 24.54979 | 54.48698 | 4473 ft | 254 kts | 311° |
| 2026-04-30 22:52 | 24.56370 | 54.47434 | 4721 ft | 266 kts | 331° |
| 2026-04-30 22:52 | 24.60013 | 54.47419 | 5468 ft | 281 kts | 31° |
| 2026-04-30 22:53 | 24.61785 | 54.51107 | 6268 ft | 290 kts | 95° |
| 2026-04-30 22:53 | 24.60327 | 54.55155 | 7180 ft | 291 kts | 125° |
| 2026-04-30 22:53 | 24.59179 | 54.57002 | 7668 ft | 293 kts | 128° |
| 2026-04-30 22:54 | 24.56837 | 54.60703 | 8666 ft | 297 kts | 126° |
| 2026-04-30 22:55 | 24.53577 | 54.66562 | 8995 ft | 302 kts | 123° |
| 2026-04-30 22:55 | 24.51489 | 54.70570 | 8993 ft | 302 kts | 122° |
| 2026-04-30 22:56 | 24.49950 | 54.74822 | 8991 ft | 307 kts | 89° |
| 2026-04-30 22:56 | 24.54017 | 54.79308 | 8992 ft | 299 kts | 355° |
| 2026-04-30 22:57 | 24.57355 | 54.77195 | 9025 ft | 282 kts | 298° |
| 2026-04-30 22:57 | 24.60423 | 54.74584 | 9585 ft | 304 kts | 350° |
| 2026-04-30 22:58 | 24.64373 | 54.76203 | 10307 ft | 329 kts | 48° |
| 2026-04-30 22:59 | 24.64797 | 54.83561 | 10871 ft | 356 kts | 127° |
| 2026-04-30 22:59 | 24.58399 | 54.87697 | 11487 ft | 374 kts | 161° |
| 2026-05-01 07:23 | -18.32179 | 112.39572 | 36983 ft | 539 kts | 127° |
| 2026-05-01 07:24 | -18.38474 | 112.49336 | 36982 ft | 540 kts | 128° |
| 2026-05-01 07:24 | -18.42684 | 112.55874 | 36983 ft | 540 kts | 128° |
| 2026-05-01 07:25 | -18.46894 | 112.62420 | 36982 ft | 540 kts | 128° |
| 2026-05-01 07:25 | -18.51108 | 112.68977 | 36982 ft | 540 kts | 128° |
| 2026-05-01 07:26 | -18.55324 | 112.75546 | 36983 ft | 541 kts | 128° |
| 2026-05-01 07:26 | -18.59535 | 112.82114 | 36981 ft | 541 kts | 128° |
| 2026-05-01 07:27 | -18.63747 | 112.88688 | 36981 ft | 541 kts | 128° |
| 2026-05-01 07:27 | -18.67953 | 112.95262 | 36984 ft | 541 kts | 128° |
| 2026-05-01 07:28 | -18.72161 | 113.01845 | 36981 ft | 541 kts | 128° |
| 2026-05-01 07:28 | -18.76345 | 113.08396 | 36980 ft | 541 kts | 128° |
| 2026-05-01 07:29 | -18.80548 | 113.14985 | 36984 ft | 541 kts | 128° |
| 2026-05-01 07:29 | -18.84755 | 113.21588 | 36982 ft | 542 kts | 128° |
| 2026-05-01 07:30 | -18.88964 | 113.28200 | 36981 ft | 542 kts | 128° |
| 2026-05-01 07:30 | -18.93175 | 113.34821 | 36981 ft | 542 kts | 128° |
| 2026-05-01 07:31 | -18.97379 | 113.41441 | 36981 ft | 542 kts | 128° |
| 2026-05-01 07:32 | -19.07855 | 113.57963 | 36977 ft | 542 kts | 128° |
| 2026-05-01 07:33 | -19.14148 | 113.67910 | 36980 ft | 542 kts | 128° |
| 2026-05-01 07:33 | -19.20432 | 113.77857 | 36979 ft | 543 kts | 128° |
| 2026-05-01 07:34 | -19.26724 | 113.87835 | 36978 ft | 542 kts | 128° |
| 2026-05-01 07:35 | -19.30907 | 113.94477 | 36979 ft | 542 kts | 128° |
| 2026-05-01 07:35 | -19.35093 | 114.01131 | 36978 ft | 542 kts | 128° |
| 2026-05-01 07:36 | -19.39275 | 114.07786 | 36974 ft | 543 kts | 128° |
| 2026-05-01 07:36 | -19.43451 | 114.14438 | 36977 ft | 543 kts | 128° |
| 2026-05-01 07:37 | -19.49717 | 114.24435 | 36977 ft | 543 kts | 128° |
| 2026-05-01 07:37 | -19.53992 | 114.31037 | 36976 ft | 541 kts | 130° |
| 2026-05-01 07:38 | -19.58393 | 114.37524 | 36975 ft | 541 kts | 130° |
| 2026-05-01 07:39 | -19.64946 | 114.47236 | 36972 ft | 542 kts | 130° |
| 2026-05-01 07:39 | -19.71478 | 114.57024 | 36972 ft | 542 kts | 129° |
| 2026-05-01 07:40 | -19.75835 | 114.63569 | 36969 ft | 542 kts | 129° |
| 2026-05-01 07:40 | -19.80185 | 114.70110 | 36969 ft | 542 kts | 129° |
| 2026-05-01 07:41 | -19.84539 | 114.76660 | 36967 ft | 543 kts | 129° |
| 2026-05-01 07:42 | -19.91063 | 114.86490 | 36967 ft | 543 kts | 129° |
| 2026-05-01 07:42 | -19.95419 | 114.93063 | 36967 ft | 544 kts | 129° |
| 2026-05-01 07:43 | -19.99767 | 114.99632 | 36964 ft | 544 kts | 129° |
| 2026-05-01 07:43 | -20.06564 | 115.09265 | 36960 ft | 541 kts | 133° |
| 2026-05-01 07:44 | -20.15833 | 115.21906 | 36958 ft | 542 kts | 132° |
| 2026-05-01 07:45 | -20.20409 | 115.28249 | 36962 ft | 543 kts | 132° |
| 2026-05-01 07:45 | -20.25000 | 115.34635 | 36957 ft | 543 kts | 132° |
| 2026-05-01 07:46 | -20.29595 | 115.41031 | 36953 ft | 543 kts | 132° |
| 2026-05-01 07:47 | -20.36484 | 115.50629 | 36951 ft | 543 kts | 132° |
| 2026-05-01 07:47 | -20.41073 | 115.57030 | 36952 ft | 544 kts | 132° |
| 2026-05-01 07:48 | -20.47962 | 115.66653 | 36953 ft | 544 kts | 132° |
| 2026-05-01 07:48 | -20.52543 | 115.73061 | 36947 ft | 544 kts | 132° |
| 2026-05-01 07:49 | -20.59431 | 115.82709 | 36941 ft | 544 kts | 132° |
| 2026-05-01 07:50 | -20.63987 | 115.89100 | 36939 ft | 545 kts | 132° |
| 2026-05-01 07:50 | -20.70870 | 115.98768 | 36938 ft | 545 kts | 132° |
| 2026-05-01 07:51 | -20.75455 | 116.05219 | 36933 ft | 545 kts | 132° |
| 2026-05-01 07:52 | -20.82336 | 116.14911 | 36932 ft | 545 kts | 132° |
| 2026-05-01 07:52 | -20.86921 | 116.21379 | 36928 ft | 546 kts | 132° |
| 2026-05-01 07:53 | -20.93770 | 116.31055 | 36923 ft | 546 kts | 132° |
| 2026-05-01 07:53 | -20.98350 | 116.37533 | 36921 ft | 546 kts | 132° |
| 2026-05-01 07:55 | -21.09796 | 116.53757 | 36902 ft | 546 kts | 132° |
| 2026-05-01 07:56 | -21.21210 | 116.69986 | 36912 ft | 546 kts | 132° |
| 2026-05-01 07:57 | -21.28062 | 116.79749 | 36910 ft | 547 kts | 132° |
| 2026-05-01 07:58 | -21.37197 | 116.92793 | 36910 ft | 547 kts | 132° |
| 2026-05-01 07:59 | -21.46351 | 117.05895 | 36911 ft | 548 kts | 132° |
| 2026-05-01 08:00 | -21.60055 | 117.25566 | 36917 ft | 549 kts | 132° |
| 2026-05-01 08:01 | -21.69151 | 117.38663 | 36917 ft | 549 kts | 132° |
| 2026-05-01 08:02 | -21.75990 | 117.48530 | 36920 ft | 549 kts | 132° |
| 2026-05-01 08:03 | -21.82840 | 117.58432 | 36928 ft | 548 kts | 132° |
| 2026-05-01 08:03 | -21.89660 | 117.68308 | 36921 ft | 548 kts | 132° |
| 2026-05-01 08:04 | -21.98746 | 117.81493 | 36923 ft | 548 kts | 132° |
| 2026-05-01 08:05 | -22.03276 | 117.88154 | 37322 ft | 552 kts | 131° |
| 2026-05-01 08:05 | -22.04751 | 117.90386 | 37481 ft | 553 kts | 130° |
| 2026-05-01 08:05 | -22.07718 | 117.94918 | 37849 ft | 553 kts | 130° |
| 2026-05-01 08:06 | -22.12119 | 118.01650 | 38426 ft | 552 kts | 130° |
| 2026-05-01 08:06 | -22.16555 | 118.08405 | 38851 ft | 552 kts | 131° |
| 2026-05-01 08:07 | -22.20291 | 118.14080 | 38933 ft | 555 kts | 131° |
| 2026-05-01 08:08 | -22.27711 | 118.25370 | 38936 ft | 554 kts | 131° |
| 2026-05-01 08:09 | -22.35885 | 118.37844 | 38948 ft | 556 kts | 131° |
| 2026-05-01 08:09 | -22.40353 | 118.44668 | 38933 ft | 557 kts | 131° |
| 2026-05-01 08:10 | -22.49296 | 118.58357 | 38942 ft | 558 kts | 131° |
| 2026-05-01 08:11 | -22.58242 | 118.72092 | 38945 ft | 558 kts | 131° |
| 2026-05-01 08:12 | -22.64956 | 118.82421 | 38953 ft | 559 kts | 131° |
| 2026-05-01 08:13 | -22.71654 | 118.92746 | 38953 ft | 560 kts | 131° |
| 2026-05-01 08:13 | -22.78364 | 119.03112 | 38948 ft | 560 kts | 131° |
| 2026-05-01 08:14 | -22.82845 | 119.10044 | 38949 ft | 561 kts | 131° |
| 2026-05-01 08:14 | -22.87305 | 119.16953 | 38952 ft | 561 kts | 131° |
| 2026-05-01 08:15 | -22.94016 | 119.27368 | 38955 ft | 562 kts | 131° |
| 2026-05-01 08:16 | -22.98495 | 119.34330 | 38955 ft | 562 kts | 131° |
| 2026-05-01 08:16 | -23.02971 | 119.41296 | 38957 ft | 563 kts | 131° |
| 2026-05-01 08:17 | -23.07446 | 119.48271 | 38952 ft | 563 kts | 131° |
| 2026-05-01 08:17 | -23.11926 | 119.55264 | 38955 ft | 563 kts | 131° |
| 2026-05-01 08:18 | -23.16395 | 119.62247 | 38957 ft | 563 kts | 131° |
| 2026-05-01 08:19 | -23.25333 | 119.76243 | 38946 ft | 564 kts | 131° |
| 2026-05-01 08:19 | -23.29801 | 119.83256 | 38960 ft | 564 kts | 131° |
| 2026-05-01 08:20 | -23.34243 | 119.90236 | 38963 ft | 564 kts | 131° |
| 2026-05-01 08:20 | -23.38717 | 119.97276 | 38964 ft | 564 kts | 131° |
| 2026-05-01 08:21 | -23.43178 | 120.04305 | 38962 ft | 565 kts | 131° |
| 2026-05-01 08:21 | -23.47644 | 120.11351 | 38962 ft | 565 kts | 131° |
| 2026-05-01 08:22 | -23.52105 | 120.18399 | 38963 ft | 565 kts | 131° |
| 2026-05-01 08:22 | -23.56570 | 120.25465 | 38965 ft | 565 kts | 131° |
| 2026-05-01 08:23 | -23.61321 | 120.32229 | 38968 ft | 560 kts | 137° |